sensor_id;sensor_type;location;lat;lon;timestamp;pressure;altitude;pressure_sealevel;temperature;humidity
30967;BME280;17649;51.836;8.330;2023-03-21T00:00:31;101107.00;;;10.34;nan
30967;BME280;17649;51.836;8.330;2023-03-21T00:03:32;101108.06;;;10.30;nan
30967;BME280;17649;51.836;8.330;2023-03-21T00:06:33;101105.13;;;10.38;nan
30967;BME280;17649;51.836;8.330;2023-03-21T00:09:34;101105.19;;;10.36;nan
30967;BME280;17649;51.836;8.330;2023-03-21T00:12:34;101098.94;;;10.40;nan
30967;BME280;17649;51.836;8.330;2023-03-21T00:15:36;101095.75;;;10.35;nan
30967;BME280;17649;51.836;8.330;2023-03-21T00:18:49;101098.91;;;10.42;nan
30967;BME280;17649;51.836;8.330;2023-03-21T00:21:51;101102.59;;;10.36;nan
30967;BME280;17649;51.836;8.330;2023-03-21T00:24:52;101100.00;;;10.36;nan
30967;BME280;17649;51.836;8.330;2023-03-21T00:27:53;101096.66;;;10.34;nan
30967;BME280;17649;51.836;8.330;2023-03-21T00:30:59;101097.41;;;10.18;nan
30967;BME280;17649;51.836;8.330;2023-03-21T00:34:00;101099.94;;;10.19;nan
30967;BME280;17649;51.836;8.330;2023-03-21T00:37:01;101087.38;;;10.30;nan
30967;BME280;17649;51.836;8.330;2023-03-21T00:40:02;101086.16;;;10.19;nan
30967;BME280;17649;51.836;8.330;2023-03-21T00:43:08;101089.41;;;10.24;nan
30967;BME280;17649;51.836;8.330;2023-03-21T00:46:08;101079.53;;;10.13;nan
30967;BME280;17649;51.836;8.330;2023-03-21T00:49:09;101090.00;;;10.10;nan
30967;BME280;17649;51.836;8.330;2023-03-21T00:52:09;101085.66;;;10.10;nan
30967;BME280;17649;51.836;8.330;2023-03-21T00:55:15;101078.97;;;10.25;nan
30967;BME280;17649;51.836;8.330;2023-03-21T00:58:17;101071.22;;;10.25;nan
30967;BME280;17649;51.836;8.330;2023-03-21T01:01:17;101073.69;;;10.28;nan
30967;BME280;17649;51.836;8.330;2023-03-21T01:04:19;101064.38;;;10.24;nan
30967;BME280;17649;51.836;8.330;2023-03-21T01:07:20;101067.44;;;10.32;nan
30967;BME280;17649;51.836;8.330;2023-03-21T01:10:20;101074.91;;;10.38;nan
30967;BME280;17649;51.836;8.330;2023-03-21T01:13:24;101070.50;;;10.40;nan
30967;BME280;17649;51.836;8.330;2023-03-21T01:16:25;101071.91;;;10.48;nan
30967;BME280;17649;51.836;8.330;2023-03-21T01:19:25;101055.75;;;10.42;nan
30967;BME280;17649;51.836;8.330;2023-03-21T01:22:28;101064.75;;;10.53;nan
30967;BME280;17649;51.836;8.330;2023-03-21T01:25:28;101050.50;;;10.44;nan
30967;BME280;17649;51.836;8.330;2023-03-21T01:28:32;101053.78;;;10.48;nan
30967;BME280;17649;51.836;8.330;2023-03-21T01:31:33;101045.28;;;10.45;nan
30967;BME280;17649;51.836;8.330;2023-03-21T01:34:33;101049.22;;;10.53;nan
30967;BME280;17649;51.836;8.330;2023-03-21T01:37:34;101044.53;;;10.61;nan
30967;BME280;17649;51.836;8.330;2023-03-21T01:40:35;101043.44;;;10.48;nan
30967;BME280;17649;51.836;8.330;2023-03-21T01:43:36;101043.38;;;10.49;nan
30967;BME280;17649;51.836;8.330;2023-03-21T01:49:40;101045.53;;;10.39;nan
30967;BME280;17649;51.836;8.330;2023-03-21T01:52:45;101039.25;;;10.45;nan
30967;BME280;17649;51.836;8.330;2023-03-21T01:55:49;101037.13;;;10.53;nan
30967;BME280;17649;51.836;8.330;2023-03-21T01:58:51;101033.00;;;10.49;nan
30967;BME280;17649;51.836;8.330;2023-03-21T02:01:56;101022.75;;;10.48;nan
30967;BME280;17649;51.836;8.330;2023-03-21T02:05:01;101023.81;;;10.61;nan
30967;BME280;17649;51.836;8.330;2023-03-21T02:08:03;101026.34;;;10.62;nan
30967;BME280;17649;51.836;8.330;2023-03-21T02:11:04;101019.19;;;10.67;nan
30967;BME280;17649;51.836;8.330;2023-03-21T02:14:04;101015.47;;;10.73;nan
30967;BME280;17649;51.836;8.330;2023-03-21T02:40:08;100997.78;;;10.64;nan
30967;BME280;17649;51.836;8.330;2023-03-21T02:46:29;101000.97;;;10.69;nan
30967;BME280;17649;51.836;8.330;2023-03-21T02:49:39;100987.28;;;10.84;nan
30967;BME280;17649;51.836;8.330;2023-03-21T02:52:44;100992.00;;;10.76;nan
30967;BME280;17649;51.836;8.330;2023-03-21T02:55:47;100981.34;;;10.82;nan
30967;BME280;17649;51.836;8.330;2023-03-21T02:58:48;100988.94;;;10.85;nan
30967;BME280;17649;51.836;8.330;2023-03-21T03:01:50;100983.94;;;10.82;nan
30967;BME280;17649;51.836;8.330;2023-03-21T03:04:51;100983.84;;;10.84;nan
30967;BME280;17649;51.836;8.330;2023-03-21T03:11:34;100969.94;;;10.86;nan
30967;BME280;17649;51.836;8.330;2023-03-21T03:15:09;100971.00;;;10.82;nan
30967;BME280;17649;51.836;8.330;2023-03-21T03:18:21;100965.53;;;10.88;nan
30967;BME280;17649;51.836;8.330;2023-03-21T03:21:41;100969.25;;;10.83;nan
30967;BME280;17649;51.836;8.330;2023-03-21T03:24:54;100970.00;;;10.85;nan
30967;BME280;17649;51.836;8.330;2023-03-21T03:27:57;100975.78;;;10.90;nan
30967;BME280;17649;51.836;8.330;2023-03-21T03:31:00;100968.03;;;10.90;nan
30967;BME280;17649;51.836;8.330;2023-03-21T03:34:05;100963.69;;;10.90;nan
30967;BME280;17649;51.836;8.330;2023-03-21T03:37:09;100975.78;;;10.90;nan
30967;BME280;17649;51.836;8.330;2023-03-21T03:40:14;100966.34;;;10.89;nan
30967;BME280;17649;51.836;8.330;2023-03-21T03:43:25;100962.78;;;10.91;nan
30967;BME280;17649;51.836;8.330;2023-03-21T03:46:33;100968.25;;;10.85;nan
30967;BME280;17649;51.836;8.330;2023-03-21T03:49:43;100966.34;;;10.89;nan
30967;BME280;17649;51.836;8.330;2023-03-21T03:52:51;100962.09;;;10.88;nan
30967;BME280;17649;51.836;8.330;2023-03-21T03:55:53;100954.16;;;10.91;nan
30967;BME280;17649;51.836;8.330;2023-03-21T03:58:55;100955.75;;;10.93;nan
30967;BME280;17649;51.836;8.330;2023-03-21T04:01:56;100945.66;;;10.89;nan
30967;BME280;17649;51.836;8.330;2023-03-21T04:04:56;100950.66;;;10.92;nan
30967;BME280;17649;51.836;8.330;2023-03-21T04:07:57;100952.25;;;10.94;nan
30967;BME280;17649;51.836;8.330;2023-03-21T04:10:57;100948.81;;;10.94;nan
30967;BME280;17649;51.836;8.330;2023-03-21T04:13:58;100950.56;;;10.93;nan
30967;BME280;17649;51.836;8.330;2023-03-21T04:16:58;100941.31;;;10.89;nan
30967;BME280;17649;51.836;8.330;2023-03-21T04:19:59;100938.63;;;10.91;nan
30967;BME280;17649;51.836;8.330;2023-03-21T04:22:59;100943.97;;;10.88;nan
30967;BME280;17649;51.836;8.330;2023-03-21T04:25:59;100945.56;;;10.90;nan
30967;BME280;17649;51.836;8.330;2023-03-21T04:29:01;100939.47;;;10.91;nan
30967;BME280;17649;51.836;8.330;2023-03-21T04:32:02;100942.13;;;10.90;nan
30967;BME280;17649;51.836;8.330;2023-03-21T04:35:02;100934.81;;;10.81;nan
30967;BME280;17649;51.836;8.330;2023-03-21T04:38:03;100942.31;;;10.87;nan
30967;BME280;17649;51.836;8.330;2023-03-21T04:41:04;100938.94;;;10.85;nan
30967;BME280;17649;51.836;8.330;2023-03-21T04:44:05;100939.00;;;10.83;nan
30967;BME280;17649;51.836;8.330;2023-03-21T04:47:06;100935.38;;;10.87;nan
30967;BME280;17649;51.836;8.330;2023-03-21T04:50:06;100925.84;;;10.88;nan
30967;BME280;17649;51.836;8.330;2023-03-21T04:53:07;100926.78;;;10.87;nan
30967;BME280;17649;51.836;8.330;2023-03-21T04:56:09;100931.88;;;10.88;nan
30967;BME280;17649;51.836;8.330;2023-03-21T04:59:14;100927.16;;;10.79;nan
30967;BME280;17649;51.836;8.330;2023-03-21T05:02:15;100921.00;;;10.64;nan
30967;BME280;17649;51.836;8.330;2023-03-21T05:05:16;100912.91;;;10.70;nan
30967;BME280;17649;51.836;8.330;2023-03-21T05:08:16;100917.19;;;10.71;nan
30967;BME280;17649;51.836;8.330;2023-03-21T05:11:16;100916.78;;;10.79;nan
30967;BME280;17649;51.836;8.330;2023-03-21T05:14:20;100915.72;;;10.83;nan
30967;BME280;17649;51.836;8.330;2023-03-21T05:17:21;100920.31;;;10.78;nan
30967;BME280;17649;51.836;8.330;2023-03-21T05:20:24;100919.38;;;10.79;nan
30967;BME280;17649;51.836;8.330;2023-03-21T05:23:24;100912.53;;;10.78;nan
30967;BME280;17649;51.836;8.330;2023-03-21T05:26:25;100919.63;;;10.74;nan
30967;BME280;17649;51.836;8.330;2023-03-21T05:29:25;100919.38;;;10.79;nan
30967;BME280;17649;51.836;8.330;2023-03-21T05:32:26;100918.31;;;10.83;nan
30967;BME280;17649;51.836;8.330;2023-03-21T05:35:26;100921.88;;;10.81;nan
30967;BME280;17649;51.836;8.330;2023-03-21T05:38:27;100913.75;;;10.88;nan
30967;BME280;17649;51.836;8.330;2023-03-21T05:41:27;100918.00;;;10.89;nan
30967;BME280;17649;51.836;8.330;2023-03-21T05:44:27;100917.44;;;11.00;nan
30967;BME280;17649;51.836;8.330;2023-03-21T05:47:27;100917.75;;;10.94;nan
30967;BME280;17649;51.836;8.330;2023-03-21T05:50:28;100925.28;;;10.98;nan
30967;BME280;17649;51.836;8.330;2023-03-21T05:53:28;100919.81;;;11.04;nan
30967;BME280;17649;51.836;8.330;2023-03-21T05:56:29;100921.09;;;10.96;nan
30967;BME280;17649;51.836;8.330;2023-03-21T05:59:30;100919.97;;;11.01;nan
30967;BME280;17649;51.836;8.330;2023-03-21T06:02:30;100918.72;;;11.09;nan
30967;BME280;17649;51.836;8.330;2023-03-21T06:05:30;100920.13;;;11.14;nan
30967;BME280;17649;51.836;8.330;2023-03-21T06:08:31;100921.34;;;11.24;nan
30967;BME280;17649;51.836;8.330;2023-03-21T06:11:34;100922.00;;;11.28;nan
30967;BME280;17649;51.836;8.330;2023-03-21T06:14:35;100922.16;;;11.25;nan
30967;BME280;17649;51.836;8.330;2023-03-21T06:17:35;100922.41;;;11.20;nan
30967;BME280;17649;51.836;8.330;2023-03-21T06:20:36;100923.56;;;11.15;nan
30967;BME280;17649;51.836;8.330;2023-03-21T06:23:36;100922.63;;;11.16;nan
30967;BME280;17649;51.836;8.330;2023-03-21T06:26:36;100917.47;;;11.16;nan
30967;BME280;17649;51.836;8.330;2023-03-21T06:29:37;100922.16;;;11.25;nan
30967;BME280;17649;51.836;8.330;2023-03-21T06:32:38;100926.50;;;11.24;nan
30967;BME280;17649;51.836;8.330;2023-03-21T06:35:39;100922.59;;;11.33;nan
30967;BME280;17649;51.836;8.330;2023-03-21T06:38:39;100925.94;;;11.35;nan
30967;BME280;17649;51.836;8.330;2023-03-21T06:41:40;100916.25;;;11.39;nan
30967;BME280;17649;51.836;8.330;2023-03-21T06:44:40;100917.34;;;11.50;nan
30967;BME280;17649;51.836;8.330;2023-03-21T06:47:40;100920.44;;;11.57;nan
30967;BME280;17649;51.836;8.330;2023-03-21T06:50:41;100924.63;;;11.59;nan
30967;BME280;17649;51.836;8.330;2023-03-21T06:53:41;100912.09;;;11.68;nan
30967;BME280;17649;51.836;8.330;2023-03-21T06:56:42;100920.81;;;11.82;nan
30967;BME280;17649;51.836;8.330;2023-03-21T06:59:42;100930.16;;;11.85;nan
30967;BME280;17649;51.836;8.330;2023-03-21T07:02:43;100925.41;;;11.93;nan
30967;BME280;17649;51.836;8.330;2023-03-21T07:05:43;100923.66;;;11.93;nan
30967;BME280;17649;51.836;8.330;2023-03-21T07:08:50;100923.72;;;12.08;nan
30967;BME280;17649;51.836;8.330;2023-03-21T07:11:51;100914.47;;;12.18;nan
30967;BME280;17649;51.836;8.330;2023-03-21T07:14:52;100921.94;;;12.08;nan
30967;BME280;17649;51.836;8.330;2023-03-21T07:17:56;100930.91;;;11.87;nan
30967;BME280;17649;51.836;8.330;2023-03-21T07:20:57;100926.97;;;11.96;nan
30967;BME280;17649;51.836;8.330;2023-03-21T07:23:57;100928.75;;;11.95;nan
30967;BME280;17649;51.836;8.330;2023-03-21T07:26:58;100920.22;;;11.93;nan
30967;BME280;17649;51.836;8.330;2023-03-21T07:29:58;100924.13;;;12.00;nan
30967;BME280;17649;51.836;8.330;2023-03-21T07:32:59;100927.47;;;12.02;nan
30967;BME280;17649;51.836;8.330;2023-03-21T07:36:00;100931.66;;;11.89;nan
30967;BME280;17649;51.836;8.330;2023-03-21T07:39:01;100930.88;;;11.71;nan
30967;BME280;17649;51.836;8.330;2023-03-21T07:42:01;100933.31;;;11.58;nan
30967;BME280;17649;51.836;8.330;2023-03-21T07:45:03;100934.75;;;11.64;nan
30967;BME280;17649;51.836;8.330;2023-03-21T07:48:05;100936.91;;;11.72;nan
30967;BME280;17649;51.836;8.330;2023-03-21T07:51:06;100940.41;;;11.55;nan
30967;BME280;17649;51.836;8.330;2023-03-21T07:54:07;100937.06;;;11.53;nan
30967;BME280;17649;51.836;8.330;2023-03-21T07:57:07;100941.31;;;11.38;nan
30967;BME280;17649;51.836;8.330;2023-03-21T08:00:08;100948.44;;;11.34;nan
30967;BME280;17649;51.836;8.330;2023-03-21T08:03:09;100949.47;;;11.48;nan
30967;BME280;17649;51.836;8.330;2023-03-21T08:06:10;100940.56;;;11.36;nan
30967;BME280;17649;51.836;8.330;2023-03-21T08:09:11;100942.53;;;11.64;nan
30967;BME280;17649;51.836;8.330;2023-03-21T08:12:11;100948.81;;;11.91;nan
30967;BME280;17649;51.836;8.330;2023-03-21T08:15:13;100946.81;;;11.81;nan
30967;BME280;17649;51.836;8.330;2023-03-21T08:18:13;100947.22;;;11.89;nan
30967;BME280;17649;51.836;8.330;2023-03-21T08:21:14;100949.31;;;11.82;nan
30967;BME280;17649;51.836;8.330;2023-03-21T08:24:15;100954.81;;;11.76;nan
30967;BME280;17649;51.836;8.330;2023-03-21T08:27:15;100953.69;;;11.82;nan
30967;BME280;17649;51.836;8.330;2023-03-21T08:30:21;100951.41;;;11.27;nan
30967;BME280;17649;51.836;8.330;2023-03-21T08:33:22;100950.41;;;11.29;nan
30967;BME280;17649;51.836;8.330;2023-03-21T08:36:23;100955.13;;;11.39;nan
30967;BME280;17649;51.836;8.330;2023-03-21T08:39:23;100959.47;;;11.38;nan
30967;BME280;17649;51.836;8.330;2023-03-21T08:42:25;100955.66;;;11.28;nan
30967;BME280;17649;51.836;8.330;2023-03-21T08:45:25;100953.94;;;11.44;nan
30967;BME280;17649;51.836;8.330;2023-03-21T08:48:26;100957.53;;;11.42;nan
30967;BME280;17649;51.836;8.330;2023-03-21T08:51:26;100965.09;;;11.62;nan
30967;BME280;17649;51.836;8.330;2023-03-21T08:54:27;100964.09;;;11.64;nan
30967;BME280;17649;51.836;8.330;2023-03-21T08:57:28;100965.03;;;11.63;nan
30967;BME280;17649;51.836;8.330;2023-03-21T09:00:28;100958.69;;;11.85;nan
30967;BME280;17649;51.836;8.330;2023-03-21T09:03:29;100965.72;;;11.83;nan
30967;BME280;17649;51.836;8.330;2023-03-21T09:06:29;100955.53;;;11.80;nan
30967;BME280;17649;51.836;8.330;2023-03-21T09:09:30;100960.97;;;11.91;nan
30967;BME280;17649;51.836;8.330;2023-03-21T09:12:30;100957.84;;;11.84;nan
30967;BME280;17649;51.836;8.330;2023-03-21T09:15:31;100965.03;;;11.95;nan
30967;BME280;17649;51.836;8.330;2023-03-21T09:18:32;100959.03;;;11.94;nan
30967;BME280;17649;51.836;8.330;2023-03-21T09:21:46;100960.78;;;11.94;nan
30967;BME280;17649;51.836;8.330;2023-03-21T09:24:46;100961.69;;;12.09;nan
30967;BME280;17649;51.836;8.330;2023-03-21T09:27:49;100951.50;;;12.06;nan
30967;BME280;17649;51.836;8.330;2023-03-21T09:30:50;100950.16;;;11.83;nan
30967;BME280;17649;51.836;8.330;2023-03-21T09:33:51;100957.66;;;11.72;nan
30967;BME280;17649;51.836;8.330;2023-03-21T09:36:52;100959.03;;;11.79;nan
30967;BME280;17649;51.836;8.330;2023-03-21T09:39:55;100957.97;;;11.50;nan
30967;BME280;17649;51.836;8.330;2023-03-21T09:43:29;100959.13;;;11.60;nan
30967;BME280;17649;51.836;8.330;2023-03-21T09:46:40;100960.16;;;11.73;nan
30967;BME280;17649;51.836;8.330;2023-03-21T09:49:45;100957.00;;;12.00;nan
30967;BME280;17649;51.836;8.330;2023-03-21T09:53:00;100947.31;;;11.87;nan
30967;BME280;17649;51.836;8.330;2023-03-21T09:56:05;100953.59;;;11.83;nan
30967;BME280;17649;51.836;8.330;2023-03-21T09:59:20;100953.91;;;11.77;nan
30967;BME280;17649;51.836;8.330;2023-03-21T10:05:39;100945.94;;;11.64;nan
30967;BME280;17649;51.836;8.330;2023-03-21T10:08:47;100948.66;;;11.79;nan
30967;BME280;17649;51.836;8.330;2023-03-21T10:11:56;100954.84;;;11.92;nan
30967;BME280;17649;51.836;8.330;2023-03-21T10:15:00;100944.97;;;11.83;nan
30967;BME280;17649;51.836;8.330;2023-03-21T10:18:04;100928.66;;;11.97;nan
30967;BME280;17649;51.836;8.330;2023-03-21T10:21:05;100923.56;;;11.95;nan
30967;BME280;17649;51.836;8.330;2023-03-21T10:24:10;100940.91;;;12.24;nan
30967;BME280;17649;51.836;8.330;2023-03-21T10:27:11;100930.53;;;12.24;nan
30967;BME280;17649;51.836;8.330;2023-03-21T10:30:29;100929.84;;;12.37;nan
30967;BME280;17649;51.836;8.330;2023-03-21T10:33:34;100931.03;;;12.15;nan
30967;BME280;17649;51.836;8.330;2023-03-21T10:36:35;100931.78;;;12.17;nan
30967;BME280;17649;51.836;8.330;2023-03-21T10:39:39;100921.22;;;12.06;nan
30967;BME280;17649;51.836;8.330;2023-03-21T10:42:40;100921.34;;;12.03;nan
30967;BME280;17649;51.836;8.330;2023-03-21T10:45:45;100919.13;;;11.97;nan
30967;BME280;17649;51.836;8.330;2023-03-21T10:48:50;100921.44;;;12.02;nan
30967;BME280;17649;51.836;8.330;2023-03-21T10:51:55;100922.34;;;12.16;nan
30967;BME280;17649;51.836;8.330;2023-03-21T10:55:20;100923.31;;;12.30;nan
30967;BME280;17649;51.836;8.330;2023-03-21T10:58:35;100900.50;;;12.50;nan
30967;BME280;17649;51.836;8.330;2023-03-21T11:01:40;100903.53;;;12.57;nan
30967;BME280;17649;51.836;8.330;2023-03-21T11:04:42;100913.41;;;12.66;nan
30967;BME280;17649;51.836;8.330;2023-03-21T11:07:44;100902.66;;;12.87;nan
30967;BME280;17649;51.836;8.330;2023-03-21T11:10:52;100905.53;;;12.82;nan
30967;BME280;17649;51.836;8.330;2023-03-21T11:13:58;100899.84;;;12.61;nan
30967;BME280;17649;51.836;8.330;2023-03-21T11:16:59;100899.41;;;12.69;nan
30967;BME280;17649;51.836;8.330;2023-03-21T11:20:02;100896.91;;;12.67;nan
30967;BME280;17649;51.836;8.330;2023-03-21T11:23:05;100893.84;;;12.75;nan
30967;BME280;17649;51.836;8.330;2023-03-21T11:26:09;100889.28;;;12.64;nan
30967;BME280;17649;51.836;8.330;2023-03-21T11:29:22;100894.22;;;12.69;nan
30967;BME280;17649;51.836;8.330;2023-03-21T11:32:35;100888.28;;;12.67;nan
30967;BME280;17649;51.836;8.330;2023-03-21T11:35:37;100892.53;;;12.68;nan
30967;BME280;17649;51.836;8.330;2023-03-21T11:38:38;100884.72;;;12.53;nan
30967;BME280;17649;51.836;8.330;2023-03-21T11:41:53;100881.19;;;12.40;nan
30967;BME280;17649;51.836;8.330;2023-03-21T11:45:06;100871.84;;;12.52;nan
30967;BME280;17649;51.836;8.330;2023-03-21T11:48:22;100874.56;;;12.65;nan
30967;BME280;17649;51.836;8.330;2023-03-21T11:51:26;100870.00;;;12.68;nan
30967;BME280;17649;51.836;8.330;2023-03-21T11:59:41;100845.41;;;13.02;nan
30967;BME280;17649;51.836;8.330;2023-03-21T12:02:38;100846.44;;;12.86;nan
30967;BME280;17649;51.836;8.330;2023-03-21T12:05:59;100825.47;;;12.89;nan
30967;BME280;17649;51.836;8.330;2023-03-21T12:44:14;100805.94;;;13.38;nan
30967;BME280;17649;51.836;8.330;2023-03-21T12:47:20;100801.38;;;13.69;nan
30967;BME280;17649;51.836;8.330;2023-03-21T12:50:25;100798.78;;;13.69;nan
30967;BME280;17649;51.836;8.330;2023-03-21T12:53:34;100793.63;;;13.94;nan
30967;BME280;17649;51.836;8.330;2023-03-21T12:56:50;100776.88;;;14.11;nan
30967;BME280;17649;51.836;8.330;2023-03-21T13:03:35;100774.47;;;13.95;nan
30967;BME280;17649;51.836;8.330;2023-03-21T13:06:37;100776.53;;;13.78;nan
30967;BME280;17649;51.836;8.330;2023-03-21T13:09:40;100789.44;;;13.92;nan
30967;BME280;17649;51.836;8.330;2023-03-21T13:16:11;100768.56;;;14.06;nan
30967;BME280;17649;51.836;8.330;2023-03-21T13:19:39;100754.63;;;14.20;nan
30967;BME280;17649;51.836;8.330;2023-03-21T13:22:42;100762.63;;;14.17;nan
30967;BME280;17649;51.836;8.330;2023-03-21T13:25:48;100763.03;;;14.11;nan
30967;BME280;17649;51.836;8.330;2023-03-21T13:28:50;100752.22;;;14.17;nan
30967;BME280;17649;51.836;8.330;2023-03-21T13:31:53;100741.94;;;14.15;nan
30967;BME280;17649;51.836;8.330;2023-03-21T13:34:56;100738.28;;;14.30;nan
30967;BME280;17649;51.836;8.330;2023-03-21T13:38:01;100743.06;;;14.37;nan
30967;BME280;17649;51.836;8.330;2023-03-21T13:41:12;100727.22;;;14.27;nan
30967;BME280;17649;51.836;8.330;2023-03-21T13:47:41;100728.50;;;14.47;nan
30967;BME280;17649;51.836;8.330;2023-03-21T13:50:59;100716.44;;;14.82;nan
30967;BME280;17649;51.836;8.330;2023-03-21T14:00:29;100705.38;;;14.17;nan
30967;BME280;17649;51.836;8.330;2023-03-21T14:03:33;100704.03;;;14.11;nan
30967;BME280;17649;51.836;8.330;2023-03-21T14:09:44;100682.38;;;13.98;nan
30967;BME280;17649;51.836;8.330;2023-03-21T14:12:46;100680.19;;;13.92;nan
30967;BME280;17649;51.836;8.330;2023-03-21T14:15:51;100674.16;;;13.91;nan
30967;BME280;17649;51.836;8.330;2023-03-21T14:18:55;100674.38;;;13.88;nan
30967;BME280;17649;51.836;8.330;2023-03-21T14:21:55;100673.00;;;13.83;nan
30967;BME280;17649;51.836;8.330;2023-03-21T14:25:00;100671.13;;;13.59;nan
30967;BME280;17649;51.836;8.330;2023-03-21T14:28:04;100670.97;;;13.35;nan
30967;BME280;17649;51.836;8.330;2023-03-21T14:31:05;100671.59;;;13.26;nan
30967;BME280;17649;51.836;8.330;2023-03-21T14:34:07;100677.19;;;13.20;nan
30967;BME280;17649;51.836;8.330;2023-03-21T14:37:10;100683.34;;;13.05;nan
30967;BME280;17649;51.836;8.330;2023-03-21T14:40:23;100685.31;;;13.01;nan
30967;BME280;17649;51.836;8.330;2023-03-21T14:43:25;100681.09;;;13.13;nan
30967;BME280;17649;51.836;8.330;2023-03-21T14:46:26;100673.84;;;13.18;nan
30967;BME280;17649;51.836;8.330;2023-03-21T14:49:31;100656.41;;;13.20;nan
30967;BME280;17649;51.836;8.330;2023-03-21T14:52:33;100640.81;;;13.20;nan
30967;BME280;17649;51.836;8.330;2023-03-21T14:55:40;100608.91;;;12.91;nan
30967;BME280;17649;51.836;8.330;2023-03-21T14:58:43;100618.25;;;12.94;nan
30967;BME280;17649;51.836;8.330;2023-03-21T15:01:45;100623.66;;;12.91;nan
30967;BME280;17649;51.836;8.330;2023-03-21T15:04:50;100614.56;;;12.98;nan
30967;BME280;17649;51.836;8.330;2023-03-21T15:07:53;100625.53;;;12.89;nan
30967;BME280;17649;51.836;8.330;2023-03-21T15:11:03;100605.56;;;12.89;nan
30967;BME280;17649;51.836;8.330;2023-03-21T15:14:06;100604.84;;;12.87;nan
30967;BME280;17649;51.836;8.330;2023-03-21T15:17:09;100627.28;;;12.88;nan
30967;BME280;17649;51.836;8.330;2023-03-21T15:20:16;100625.34;;;13.04;nan
30967;BME280;17649;51.836;8.330;2023-03-21T15:23:32;100622.53;;;12.95;nan
30967;BME280;17649;51.836;8.330;2023-03-21T15:26:34;100621.41;;;12.99;nan
30967;BME280;17649;51.836;8.330;2023-03-21T15:29:36;100610.16;;;12.86;nan
30967;BME280;17649;51.836;8.330;2023-03-21T15:32:36;100609.72;;;12.92;nan
30967;BME280;17649;51.836;8.330;2023-03-21T15:35:39;100605.88;;;12.84;nan
30967;BME280;17649;51.836;8.330;2023-03-21T15:38:41;100604.94;;;12.86;nan
30967;BME280;17649;51.836;8.330;2023-03-21T15:45:24;100615.28;;;12.73;nan
30967;BME280;17649;51.836;8.330;2023-03-21T15:48:28;100620.91;;;12.79;nan
30967;BME280;17649;51.836;8.330;2023-03-21T15:51:34;100614.72;;;12.82;nan
30967;BME280;17649;51.836;8.330;2023-03-21T15:57:43;100613.22;;;12.78;nan
30967;BME280;17649;51.836;8.330;2023-03-21T16:00:54;100614.06;;;12.78;nan
30967;BME280;17649;51.836;8.330;2023-03-21T16:04:06;100610.47;;;12.94;nan
30967;BME280;17649;51.836;8.330;2023-03-21T16:07:13;100597.47;;;13.21;nan
30967;BME280;17649;51.836;8.330;2023-03-21T16:13:26;100589.03;;;13.17;nan
30967;BME280;17649;51.836;8.330;2023-03-21T16:16:30;100592.50;;;13.30;nan
30967;BME280;17649;51.836;8.330;2023-03-21T16:19:30;100592.09;;;13.36;nan
30967;BME280;17649;51.836;8.330;2023-03-21T16:22:30;100587.72;;;13.37;nan
30967;BME280;17649;51.836;8.330;2023-03-21T16:25:34;100589.81;;;13.45;nan
30967;BME280;17649;51.836;8.330;2023-03-21T16:28:35;100593.13;;;13.47;nan
30967;BME280;17649;51.836;8.330;2023-03-21T16:31:35;100594.69;;;13.36;nan
30967;BME280;17649;51.836;8.330;2023-03-21T16:34:36;100592.44;;;13.18;nan
30967;BME280;17649;51.836;8.330;2023-03-21T16:37:37;100584.28;;;13.24;nan
30967;BME280;17649;51.836;8.330;2023-03-21T16:40:39;100580.75;;;13.25;nan
30967;BME280;17649;51.836;8.330;2023-03-21T16:43:41;100585.94;;;13.37;nan
30967;BME280;17649;51.836;8.330;2023-03-21T16:46:42;100581.91;;;13.59;nan
30967;BME280;17649;51.836;8.330;2023-03-21T16:49:43;100583.69;;;13.46;nan
30967;BME280;17649;51.836;8.330;2023-03-21T16:52:44;100590.44;;;13.48;nan
30967;BME280;17649;51.836;8.330;2023-03-21T16:55:44;100579.72;;;13.53;nan
30967;BME280;17649;51.836;8.330;2023-03-21T16:58:45;100580.16;;;13.47;nan
30967;BME280;17649;51.836;8.330;2023-03-21T17:01:45;100585.13;;;13.37;nan
30967;BME280;17649;51.836;8.330;2023-03-21T17:04:47;100585.13;;;13.37;nan
30967;BME280;17649;51.836;8.330;2023-03-21T17:07:47;100591.00;;;13.13;nan
30967;BME280;17649;51.836;8.330;2023-03-21T17:10:50;100599.19;;;12.95;nan
30967;BME280;17649;51.836;8.330;2023-03-21T17:13:53;100587.72;;;12.84;nan
30967;BME280;17649;51.836;8.330;2023-03-21T17:16:53;100593.84;;;12.83;nan
30967;BME280;17649;51.836;8.330;2023-03-21T17:19:56;100591.44;;;12.80;nan
30967;BME280;17649;51.836;8.330;2023-03-21T17:22:57;100578.84;;;12.74;nan
30967;BME280;17649;51.836;8.330;2023-03-21T17:25:57;100584.22;;;12.71;nan
30967;BME280;17649;51.836;8.330;2023-03-21T17:28:58;100579.56;;;12.76;nan
30967;BME280;17649;51.836;8.330;2023-03-21T17:31:59;100572.50;;;12.66;nan
30967;BME280;17649;51.836;8.330;2023-03-21T17:34:59;100583.06;;;12.63;nan
30967;BME280;17649;51.836;8.330;2023-03-21T17:37:59;100590.44;;;12.42;nan
30967;BME280;17649;51.836;8.330;2023-03-21T17:41:00;100595.53;;;12.43;nan
30967;BME280;17649;51.836;8.330;2023-03-21T17:44:00;100599.16;;;12.41;nan
30967;BME280;17649;51.836;8.330;2023-03-21T17:47:01;100603.44;;;12.28;nan
30967;BME280;17649;51.836;8.330;2023-03-21T17:50:02;100604.00;;;12.33;nan
30967;BME280;17649;51.836;8.330;2023-03-21T17:53:03;100609.75;;;12.23;nan
30967;BME280;17649;51.836;8.330;2023-03-21T17:56:03;100625.78;;;12.16;nan
30967;BME280;17649;51.836;8.330;2023-03-21T17:59:05;100622.56;;;12.12;nan
30967;BME280;17649;51.836;8.330;2023-03-21T18:02:06;100629.22;;;12.16;nan
30967;BME280;17649;51.836;8.330;2023-03-21T18:05:07;100629.94;;;12.18;nan
30967;BME280;17649;51.836;8.330;2023-03-21T18:08:09;100623.47;;;12.26;nan